createdAt,value
2019-01-25T00:00:16.407Z,130.77
2019-01-25T00:02:44.635Z,128.43
2019-01-25T00:05:12.839Z,131.77
2019-01-25T00:07:41.048Z,141.47
2019-01-25T00:10:09.736Z,136.30
2019-01-25T00:12:37.931Z,133.27
2019-01-25T00:15:09.072Z,135.23
2019-01-25T00:17:37.282Z,149.60
2019-01-25T00:20:10.730Z,136.20
2019-01-25T00:22:38.978Z,147.03
2019-01-25T00:25:07.261Z,145.93
2019-01-25T00:27:35.572Z,140.23
2019-01-25T00:30:08.787Z,153.07
2019-01-25T00:32:36.995Z,141.63
2019-01-25T00:35:06.044Z,152.80
2019-01-25T00:37:34.244Z,149.97
2019-01-25T00:40:06.404Z,138.97
2019-01-25T00:42:32.460Z,145.23
2019-01-25T00:45:00.659Z,151.50
2019-01-25T00:47:28.939Z,148.37
2019-01-25T00:49:57.154Z,137.73
2019-01-25T00:52:25.359Z,152.30
2019-01-25T00:54:53.572Z,150.73
2019-01-25T00:57:21.787Z,150.90
2019-01-25T00:59:49.986Z,147.00
2019-01-25T01:02:18.191Z,149.63
2019-01-25T01:04:46.399Z,138.97
2019-01-25T01:07:14.601Z,142.17
2019-01-25T01:09:42.816Z,139.30
2019-01-25T01:12:11.016Z,137.77
2019-01-25T01:14:39.232Z,145.07
2019-01-25T01:17:26.875Z,143.77
2019-01-25T01:20:15.595Z,145.33
2019-01-25T01:22:43.803Z,140.27
2019-01-25T01:25:12.755Z,145.40
2019-01-25T01:27:40.959Z,148.37
2019-01-25T01:30:12.475Z,153.90
2019-01-25T01:32:40.683Z,151.10
2019-01-25T01:35:08.959Z,154.90
2019-01-25T01:37:37.168Z,148.97
2019-01-25T01:40:08.640Z,157.40
2019-01-25T01:42:36.856Z,152.77
2019-01-25T01:45:07.011Z,152.00
2019-01-25T01:47:35.219Z,158.23
2019-01-25T01:50:06.035Z,149.57
2019-01-25T01:52:34.236Z,138.23
2019-01-25T01:55:02.447Z,152.43
2019-01-25T01:57:30.655Z,130.97
2019-01-25T01:59:58.860Z,140.60
2019-01-25T02:02:27.077Z,135.03
2019-01-25T02:04:55.267Z,151.50
2019-01-25T02:07:24.164Z,146.57
2019-01-25T02:09:52.363Z,144.70
2019-01-25T02:12:20.643Z,131.60
2019-01-25T02:14:48.847Z,142.53
2019-01-25T02:17:17.039Z,140.47
2019-01-25T02:19:45.244Z,147.13
2019-01-25T02:22:13.450Z,145.27
2019-01-25T02:24:41.668Z,145.37
2019-01-25T02:27:09.868Z,137.63
2019-01-25T02:29:38.075Z,139.17
2019-01-25T02:32:06.280Z,144.90
2019-01-25T02:34:34.487Z,153.03
2019-01-25T02:37:02.764Z,140.17
2019-01-25T02:39:30.995Z,134.23
2019-01-25T02:41:59.190Z,134.17
2019-01-25T02:44:27.391Z,137.50
2019-01-25T02:46:55.603Z,145.40
2019-01-25T02:49:23.807Z,148.70
2019-01-25T02:51:52.019Z,146.30
2019-01-25T02:54:20.223Z,156.43
2019-01-25T02:56:48.459Z,139.53
2019-01-25T02:59:16.646Z,143.73
2019-01-25T03:01:44.842Z,141.57
2019-01-25T03:04:13.051Z,142.67
2019-01-25T03:06:41.244Z,151.93
2019-01-25T03:09:09.621Z,135.73
2019-01-25T03:11:37.831Z,153.10
2019-01-25T03:14:06.039Z,148.27
2019-01-25T03:16:34.241Z,144.70
2019-01-25T03:19:02.448Z,153.47
2019-01-25T03:21:30.651Z,138.60
2019-01-25T03:23:58.863Z,155.97
2019-01-25T03:26:27.069Z,143.30
2019-01-25T03:28:55.280Z,142.97
2019-01-25T03:31:23.491Z,139.00
2019-01-25T03:33:51.701Z,141.87
2019-01-25T03:36:19.911Z,144.83
2019-01-25T03:38:48.109Z,149.07
2019-01-25T03:41:16.320Z,140.20
2019-01-25T03:43:44.528Z,150.43
2019-01-25T03:46:12.735Z,148.37
2019-01-25T03:48:40.948Z,148.27
2019-01-25T03:51:09.152Z,157.83
2019-01-25T03:53:37.355Z,151.50
2019-01-25T03:56:05.566Z,147.17
2019-01-25T03:58:33.764Z,144.30
2019-01-25T04:01:01.988Z,143.13
2019-01-25T04:03:30.264Z,141.87
2019-01-25T04:05:58.486Z,143.10
2019-01-25T04:08:26.680Z,150.40
2019-01-25T04:11:03.097Z,147.40
2019-01-25T04:13:24.814Z,150.80
2019-01-25T04:15:53.021Z,138.50
2019-01-25T04:18:21.223Z,142.37
2019-01-25T04:20:49.439Z,153.00
2019-01-25T04:23:17.652Z,158.53
2019-01-25T04:25:45.852Z,139.57
2019-01-25T04:28:14.080Z,157.07
2019-01-25T04:30:42.279Z,147.90
2019-01-25T04:33:10.491Z,144.97
2019-01-25T04:35:38.692Z,142.27
2019-01-25T04:38:06.917Z,148.70
2019-01-25T04:40:35.119Z,147.97
2019-01-25T04:43:03.321Z,147.00
2019-01-25T04:45:31.537Z,155.17
2019-01-25T04:47:59.728Z,144.97
2019-01-25T04:50:27.945Z,158.10
2019-01-25T04:52:56.143Z,142.20
2019-01-25T04:55:28.932Z,144.90
2019-01-25T04:58:11.967Z,145.87
2019-01-25T05:00:40.173Z,149.37
2019-01-25T05:03:08.367Z,139.00
2019-01-25T05:05:36.571Z,145.83
2019-01-25T05:08:10.998Z,144.93
2019-01-25T05:10:39.207Z,152.67
2019-01-25T05:13:07.413Z,151.53
2019-01-25T05:15:35.622Z,148.93
2019-01-25T05:18:03.896Z,142.97
2019-01-25T05:20:32.091Z,157.90
2019-01-25T05:23:03.148Z,164.33
2019-01-25T05:25:31.341Z,143.33
2019-01-25T05:28:09.753Z,143.90
2019-01-25T05:30:58.500Z,155.23
2019-01-25T05:33:26.715Z,143.67
2019-01-25T05:35:54.929Z,143.37
2019-01-25T05:38:23.132Z,138.23
2019-01-25T05:40:51.331Z,160.03
2019-01-25T05:43:19.528Z,140.40
2019-01-25T05:45:47.751Z,140.60
2019-01-25T05:48:15.975Z,129.53
2019-01-25T05:50:44.175Z,132.50
2019-01-25T05:53:12.391Z,148.67
2019-01-25T05:55:40.599Z,148.90
2019-01-25T05:58:10.136Z,137.50
2019-01-25T06:00:39.979Z,139.53
2019-01-25T06:03:13.496Z,141.10
2019-01-25T06:05:41.759Z,141.30
2019-01-25T06:08:13.351Z,134.40
2019-01-25T06:10:41.551Z,132.87
2019-01-25T06:13:10.027Z,147.87
2019-01-25T06:15:38.271Z,140.77
2019-01-25T06:18:06.488Z,146.93
2019-01-25T06:20:34.687Z,139.67
2019-01-25T06:23:02.899Z,142.10
2019-01-25T06:25:31.113Z,136.60
2019-01-25T06:27:59.404Z,141.37
2019-01-25T06:30:27.615Z,162.93
2019-01-25T06:32:55.815Z,153.43
2019-01-25T06:35:26.008Z,139.13
2019-01-25T06:37:54.396Z,146.37
2019-01-25T06:40:22.595Z,158.83
2019-01-25T06:42:50.795Z,155.63
2019-01-25T06:45:19.003Z,150.10
2019-01-25T06:47:47.207Z,171.87
2019-01-25T06:50:15.412Z,155.33
2019-01-25T06:52:43.611Z,171.00
2019-01-25T06:55:11.807Z,185.93
2019-01-25T06:57:44.615Z,151.53
2019-01-25T07:00:17.732Z,167.97
2019-01-25T07:02:45.939Z,171.50
2019-01-25T07:05:14.131Z,167.50
2019-01-25T07:07:43.600Z,172.73
2019-01-25T07:10:14.743Z,170.53
2019-01-25T07:12:42.935Z,173.27
2019-01-25T07:15:13.155Z,178.37
2019-01-25T07:17:41.350Z,184.30
2019-01-25T07:20:14.511Z,168.43
2019-01-25T07:22:42.707Z,179.07
2019-01-25T07:25:15.310Z,163.97
2019-01-25T07:27:43.528Z,147.60
2019-01-25T07:30:17.875Z,138.43
2019-01-25T07:32:46.103Z,136.53
2019-01-25T07:35:14.353Z,139.67
2019-01-25T07:37:42.629Z,131.00
2019-01-25T07:40:11.348Z,129.70
2019-01-25T07:42:39.656Z,132.43
2019-01-25T07:45:14.388Z,123.40
2019-01-25T07:47:43.065Z,115.70
2019-01-25T07:50:12.101Z,111.33
2019-01-25T07:52:40.350Z,97.13
2019-01-25T07:55:11.016Z,51.93
2019-01-25T07:57:39.308Z,50.77
2019-01-25T08:00:15.379Z,40.90
2019-01-25T08:02:43.596Z,52.33
2019-01-25T08:05:11.817Z,62.03
2019-01-25T08:07:40.739Z,59.77
2019-01-25T08:10:15.376Z,61.47
2019-01-25T08:12:43.716Z,53.60
2019-01-25T08:15:15.562Z,59.27
2019-01-25T08:17:43.752Z,31.53
2019-01-25T08:20:13.143Z,42.30
2019-01-25T08:22:41.375Z,38.93
2019-01-25T08:25:09.645Z,47.27
2019-01-25T08:27:37.845Z,31.47
2019-01-25T08:30:23.480Z,24.50
2019-01-25T08:32:51.995Z,34.13
2019-01-25T08:35:20.525Z,37.20
2019-01-25T08:37:48.732Z,41.83
2019-01-25T08:40:17.738Z,42.30
2019-01-25T08:42:45.929Z,51.10
2019-01-25T08:45:15.475Z,46.10
2019-01-25T08:47:43.713Z,49.50
2019-01-25T08:50:15.216Z,52.37
2019-01-25T08:52:43.463Z,69.10
2019-01-25T08:55:11.708Z,61.20
2019-01-25T08:57:39.941Z,56.90
2019-01-25T09:00:16.805Z,43.20
2019-01-25T09:02:45.067Z,27.70
2019-01-25T09:05:13.251Z,19.10
2019-01-25T09:07:41.475Z,39.17
2019-01-25T09:10:12.716Z,33.53
2019-01-25T09:12:40.947Z,31.20
2019-01-25T09:15:12.107Z,44.33
2019-01-25T09:17:40.291Z,61.27
2019-01-25T09:20:14.607Z,70.97
2019-01-25T09:22:42.059Z,27.67
2019-01-25T09:25:10.263Z,27.30
2019-01-25T09:27:38.455Z,48.17
2019-01-25T09:30:09.903Z,45.57
2019-01-25T09:32:38.107Z,31.17
2019-01-25T09:35:07.033Z,27.90
2019-01-25T09:37:35.244Z,41.67
2019-01-25T09:40:04.504Z,34.43
2019-01-25T09:42:32.696Z,31.30
2019-01-25T09:45:00.896Z,52.00
2019-01-25T09:47:29.663Z,53.83
2019-01-25T09:49:57.848Z,64.13
2019-01-25T09:52:26.048Z,48.07
2019-01-25T09:54:54.248Z,55.20
2019-01-25T09:57:22.443Z,47.33
2019-01-25T09:59:50.635Z,37.43
2019-01-25T10:02:18.835Z,50.13
2019-01-25T10:04:47.032Z,32.10
2019-01-25T10:07:15.223Z,43.77
2019-01-25T10:09:43.423Z,46.90
2019-01-25T10:12:11.633Z,29.53
2019-01-25T10:14:39.819Z,45.63
2019-01-25T10:17:08.011Z,40.90
2019-01-25T10:19:36.218Z,38.77
2019-01-25T10:22:04.475Z,39.93
2019-01-25T10:24:32.668Z,39.50
2019-01-25T10:27:00.872Z,31.67
2019-01-25T10:29:29.063Z,32.73
2019-01-25T10:31:57.274Z,30.83
2019-01-25T10:34:25.464Z,28.50
2019-01-25T10:36:53.655Z,27.57
2019-01-25T10:39:21.859Z,29.13
2019-01-25T10:41:50.051Z,19.60
2019-01-25T10:44:18.265Z,20.27
2019-01-25T10:46:46.450Z,21.23
2019-01-25T10:49:14.644Z,25.63
2019-01-25T10:51:42.845Z,23.07
2019-01-25T10:54:11.031Z,22.57
2019-01-25T10:56:41.906Z,22.67
2019-01-25T10:59:09.160Z,41.37
2019-01-25T11:01:37.339Z,20.67
2019-01-25T11:04:05.535Z,22.40
2019-01-25T11:06:33.727Z,19.73
2019-01-25T11:09:01.923Z,16.40
2019-01-25T11:11:30.115Z,21.13
2019-01-25T11:13:58.345Z,19.73
2019-01-25T11:16:26.518Z,21.67
2019-01-25T11:18:54.707Z,19.23
2019-01-25T11:21:22.899Z,17.17
2019-01-25T11:23:51.096Z,18.53
2019-01-25T11:26:19.295Z,16.20
2019-01-25T11:28:47.479Z,6.47
2019-01-25T11:31:15.671Z,10.30
2019-01-25T11:33:43.881Z,15.47
2019-01-25T11:36:12.071Z,11.37
2019-01-25T11:38:40.259Z,20.77
2019-01-25T11:41:08.464Z,17.90
2019-01-25T11:43:36.656Z,16.63
2019-01-25T11:46:04.907Z,17.67
2019-01-25T11:48:33.115Z,17.43
2019-01-25T11:51:01.308Z,20.33
2019-01-25T11:53:29.511Z,19.90
2019-01-25T11:55:57.702Z,17.50
2019-01-25T11:58:25.956Z,20.90
2019-01-25T12:00:54.175Z,17.17
2019-01-25T12:03:22.372Z,18.70
2019-01-25T12:05:50.575Z,16.80
2019-01-25T12:08:18.776Z,14.93
2019-01-25T12:10:46.975Z,16.00
2019-01-25T12:13:16.287Z,13.83
2019-01-25T12:15:44.751Z,15.43
2019-01-25T12:18:12.994Z,16.50
2019-01-25T12:20:41.218Z,16.70
2019-01-25T12:23:09.416Z,17.63
2019-01-25T12:25:37.619Z,18.63
2019-01-25T12:28:05.811Z,21.70
2019-01-25T12:30:38.149Z,17.33
2019-01-25T12:33:07.322Z,16.63
2019-01-25T12:35:37.647Z,15.63
2019-01-25T12:38:05.830Z,14.67
2019-01-25T12:40:34.397Z,10.60
2019-01-25T12:43:02.599Z,11.80
2019-01-25T12:45:31.523Z,12.77
2019-01-25T12:47:59.727Z,14.47
2019-01-25T12:50:39.815Z,10.73
2019-01-25T12:53:09.768Z,10.20
2019-01-25T12:55:38.036Z,15.30
2019-01-25T12:58:06.364Z,22.17
2019-01-25T13:00:34.566Z,16.50
2019-01-25T13:03:02.763Z,11.63
2019-01-25T13:05:30.963Z,11.70
2019-01-25T13:07:59.167Z,13.63
2019-01-25T13:10:28.608Z,13.20
2019-01-25T13:12:56.816Z,24.13
2019-01-25T13:15:25.011Z,17.10
2019-01-25T13:17:53.207Z,19.90
2019-01-25T13:20:27.019Z,12.13
2019-01-25T13:22:55.284Z,16.97
2019-01-25T13:25:23.488Z,19.43
2019-01-25T13:27:51.784Z,21.53
2019-01-25T13:30:24.984Z,19.07
2019-01-25T13:32:53.181Z,20.73
2019-01-25T13:35:21.455Z,26.07
2019-01-25T13:37:49.735Z,12.27
2019-01-25T13:40:20.077Z,26.63
2019-01-25T13:42:48.275Z,30.40
2019-01-25T13:45:20.514Z,22.03
2019-01-25T13:47:48.702Z,44.30
2019-01-25T13:50:30.050Z,23.57
2019-01-25T13:52:58.260Z,17.47
2019-01-25T13:55:26.451Z,26.90
2019-01-25T13:57:54.650Z,19.77
2019-01-25T14:00:27.744Z,22.40
2019-01-25T14:02:55.943Z,16.90
2019-01-25T14:05:24.127Z,10.57
2019-01-25T14:07:52.315Z,24.27
2019-01-25T14:10:31.939Z,20.87
2019-01-25T14:13:19.636Z,31.77
2019-01-25T14:15:47.840Z,26.50
2019-01-25T14:18:16.046Z,30.03
2019-01-25T14:20:44.235Z,76.10
2019-01-25T14:23:12.444Z,21.23
2019-01-25T14:25:40.640Z,20.03
2019-01-25T14:28:08.847Z,13.87
2019-01-25T14:30:38.972Z,16.83
2019-01-25T14:33:07.340Z,15.50
2019-01-25T14:35:35.627Z,25.27
2019-01-25T14:38:03.887Z,25.93
2019-01-25T14:40:32.083Z,35.90
2019-01-25T14:43:00.279Z,25.60
2019-01-25T14:45:28.471Z,19.67
2019-01-25T14:47:56.663Z,21.87
2019-01-25T14:50:27.656Z,11.43
2019-01-25T14:52:55.851Z,19.80
2019-01-25T14:55:24.044Z,13.17
2019-01-25T14:57:52.243Z,13.10
2019-01-25T15:00:20.436Z,11.47
2019-01-25T15:02:48.628Z,16.40
2019-01-25T15:05:18.166Z,14.97
2019-01-25T15:07:46.351Z,8.47
2019-01-25T15:10:20.231Z,17.80
2019-01-25T15:12:48.975Z,11.90
2019-01-25T15:15:17.174Z,13.87
2019-01-25T15:17:45.381Z,14.77
2019-01-25T15:20:16.767Z,18.00
2019-01-25T15:22:44.963Z,19.70
2019-01-25T15:25:13.155Z,16.07
2019-01-25T15:27:41.355Z,13.73
2019-01-25T15:30:15.424Z,17.60
2019-01-25T15:32:43.628Z,27.23
2019-01-25T15:35:13.155Z,25.93
2019-01-25T15:37:42.024Z,24.47
2019-01-25T15:40:12.552Z,17.73
2019-01-25T15:42:40.747Z,22.33
2019-01-25T15:45:11.479Z,32.13
2019-01-25T15:47:39.680Z,23.20
2019-01-25T15:50:23.046Z,26.30
2019-01-25T15:52:51.247Z,29.70
2019-01-25T15:55:19.708Z,26.47
2019-01-25T15:57:47.907Z,99.03
2019-01-25T16:00:18.233Z,27.17
2019-01-25T16:02:46.431Z,26.97
2019-01-25T16:05:16.260Z,20.27
2019-01-25T16:07:44.463Z,21.47
2019-01-25T16:10:15.267Z,27.93
2019-01-25T16:12:43.463Z,37.10
2019-01-25T16:15:14.923Z,35.33
2019-01-25T16:17:43.121Z,19.73
2019-01-25T16:20:13.446Z,19.30
2019-01-25T16:22:41.655Z,38.27
2019-01-25T16:25:12.383Z,13.37
2019-01-25T16:27:40.579Z,37.17
2019-01-25T16:30:12.080Z,30.33
2019-01-25T16:32:40.284Z,21.70
2019-01-25T16:35:09.715Z,48.83
2019-01-25T16:37:37.907Z,35.20
2019-01-25T16:40:09.370Z,36.77
2019-01-25T16:42:37.555Z,22.23
2019-01-25T16:45:09.003Z,31.40
2019-01-25T16:47:37.207Z,24.90
2019-01-25T16:50:06.846Z,38.77
2019-01-25T16:52:35.036Z,24.50
2019-01-25T16:55:03.303Z,36.97
2019-01-25T16:57:31.507Z,25.87
2019-01-25T16:59:59.711Z,32.77
2019-01-25T17:02:27.904Z,23.97
2019-01-25T17:04:56.095Z,31.57
2019-01-25T17:07:24.296Z,24.80
2019-01-25T17:09:52.486Z,27.67
2019-01-25T17:12:20.692Z,24.83
2019-01-25T17:14:48.883Z,25.07
2019-01-25T17:17:17.075Z,35.20
2019-01-25T17:19:45.278Z,28.00
2019-01-25T17:22:13.467Z,38.60
2019-01-25T17:24:41.656Z,28.30
2019-01-25T17:27:09.863Z,22.87
2019-01-25T17:29:38.054Z,34.13
2019-01-25T17:32:06.823Z,27.70
2019-01-25T17:34:35.017Z,26.77
2019-01-25T17:37:03.203Z,25.10
2019-01-25T17:39:31.411Z,27.27
2019-01-25T17:41:59.593Z,29.90
2019-01-25T17:44:27.783Z,26.63
2019-01-25T17:46:55.979Z,21.27
2019-01-25T17:49:24.178Z,30.73
2019-01-25T17:51:52.367Z,26.50
2019-01-25T17:54:20.595Z,31.57
2019-01-25T17:56:48.783Z,30.70
2019-01-25T17:59:16.976Z,37.83
2019-01-25T18:01:45.170Z,17.90
2019-01-25T18:04:13.363Z,28.40
2019-01-25T18:06:41.563Z,26.03
2019-01-25T18:09:09.764Z,27.13
2019-01-25T18:11:57.379Z,33.23
2019-01-25T18:14:25.584Z,33.10
2019-01-25T18:16:54.343Z,34.20
2019-01-25T18:19:22.535Z,42.13
2019-01-25T18:21:50.734Z,43.47
2019-01-25T18:24:18.923Z,26.77
2019-01-25T18:26:47.116Z,37.80
2019-01-25T18:29:15.319Z,28.27
2019-01-25T18:31:43.516Z,37.77
2019-01-25T18:34:11.721Z,29.73
2019-01-25T18:36:39.928Z,30.93
2019-01-25T18:39:08.132Z,36.70
2019-01-25T18:41:36.307Z,42.03
2019-01-25T18:44:04.575Z,18.23
2019-01-25T18:46:32.775Z,28.53
2019-01-25T18:49:00.963Z,43.50
2019-01-25T18:51:29.154Z,32.17
2019-01-25T18:53:57.351Z,36.93
2019-01-25T18:56:25.539Z,29.27
2019-01-25T18:58:53.817Z,29.77
2019-01-25T19:01:22.003Z,22.97
2019-01-25T19:03:50.730Z,35.67
2019-01-25T19:06:18.966Z,29.97
2019-01-25T19:08:47.171Z,32.60
2019-01-25T19:11:15.363Z,26.67
2019-01-25T19:13:43.556Z,30.97
2019-01-25T19:16:11.750Z,28.13
2019-01-25T19:18:39.943Z,19.83
2019-01-25T19:21:08.411Z,23.97
2019-01-25T19:23:36.606Z,30.17
2019-01-25T19:26:04.805Z,27.00
2019-01-25T19:28:32.999Z,29.00
2019-01-25T19:31:01.276Z,15.70
2019-01-25T19:33:29.483Z,26.73
2019-01-25T19:35:57.679Z,27.60
2019-01-25T19:38:25.871Z,31.53
2019-01-25T19:40:54.071Z,29.30
2019-01-25T19:43:22.269Z,29.10
2019-01-25T19:45:50.459Z,19.60
2019-01-25T19:48:18.651Z,26.37
2019-01-25T19:50:46.843Z,23.07
2019-01-25T19:53:15.078Z,24.23
2019-01-25T19:55:43.311Z,19.83
2019-01-25T19:58:13.667Z,21.43
2019-01-25T20:00:44.459Z,19.90
2019-01-25T20:03:12.649Z,19.87
2019-01-25T20:05:40.848Z,18.77
2019-01-25T20:08:09.113Z,25.83
2019-01-25T20:10:37.332Z,27.97
2019-01-25T20:13:06.359Z,19.40
2019-01-25T20:15:34.560Z,21.63
2019-01-25T20:18:03.591Z,25.97
2019-01-25T20:20:34.699Z,15.17
2019-01-25T20:23:02.905Z,21.03
2019-01-25T20:25:31.087Z,21.17
2019-01-25T20:27:59.759Z,19.63
2019-01-25T20:30:33.900Z,17.60
2019-01-25T20:33:03.839Z,16.53
2019-01-25T20:35:43.153Z,16.23
2019-01-25T20:38:11.359Z,19.67
2019-01-25T20:40:39.619Z,21.00
2019-01-25T20:43:07.807Z,17.27
2019-01-25T20:45:40.551Z,21.00
2019-01-25T20:48:09.108Z,20.37
2019-01-25T20:50:38.159Z,17.23
2019-01-25T20:53:08.840Z,24.27
2019-01-25T20:55:37.038Z,24.53
2019-01-25T20:58:05.515Z,16.80
2019-01-25T21:00:35.480Z,23.23
2019-01-25T21:03:04.024Z,16.93
2019-01-25T21:05:32.223Z,19.33
2019-01-25T21:08:00.415Z,12.00
2019-01-25T21:10:28.609Z,17.47
2019-01-25T21:12:56.807Z,12.00
2019-01-25T21:15:34.816Z,17.07
2019-01-25T21:17:57.296Z,14.07
2019-01-25T21:20:40.022Z,15.83
2019-01-25T21:23:08.207Z,17.60
2019-01-25T21:25:36.411Z,20.13
2019-01-25T21:28:05.344Z,16.37
2019-01-25T21:30:37.120Z,17.43
2019-01-25T21:33:06.307Z,18.57
2019-01-25T21:35:34.500Z,14.33
2019-01-25T21:38:02.687Z,19.83
2019-01-25T21:40:32.523Z,15.70
2019-01-25T21:43:00.724Z,20.10
2019-01-25T21:45:30.643Z,11.53
2019-01-25T21:47:58.991Z,18.40
2019-01-25T21:50:30.183Z,15.57
2019-01-25T21:52:58.371Z,19.33
2019-01-25T21:55:26.576Z,19.23
2019-01-25T21:57:54.762Z,18.07
2019-01-25T22:00:25.755Z,18.00
2019-01-25T22:02:53.959Z,24.90
2019-01-25T22:05:22.139Z,16.90
2019-01-25T22:07:50.344Z,18.30
2019-01-25T22:10:27.475Z,13.27
2019-01-25T22:12:55.685Z,22.00
2019-01-25T22:15:23.871Z,20.23
2019-01-25T22:17:52.058Z,20.80
2019-01-25T22:20:22.196Z,15.80
2019-01-25T22:22:50.399Z,10.70
2019-01-25T22:25:18.587Z,19.63
2019-01-25T22:27:48.623Z,15.07
2019-01-25T22:30:19.056Z,15.60
2019-01-25T22:32:47.247Z,15.40
2019-01-25T22:35:15.434Z,14.70
2019-01-25T22:37:43.635Z,16.00
2019-01-25T22:40:20.452Z,16.87
2019-01-25T22:42:48.651Z,17.73
2019-01-25T22:45:21.823Z,29.10
2019-01-25T22:47:50.008Z,17.27
2019-01-25T22:50:23.735Z,15.33
2019-01-25T22:52:51.919Z,20.17
2019-01-25T22:55:21.264Z,26.70
2019-01-25T22:57:49.527Z,16.03
2019-01-25T23:00:51.202Z,27.20
2019-01-25T23:03:34.674Z,15.67
2019-01-25T23:06:22.843Z,21.70
2019-01-25T23:08:51.036Z,18.43
2019-01-25T23:11:19.294Z,17.17
2019-01-25T23:13:47.494Z,25.97
2019-01-25T23:16:15.687Z,26.50
2019-01-25T23:18:44.178Z,27.30
2019-01-25T23:21:12.367Z,29.33
2019-01-25T23:23:40.571Z,30.70
2019-01-25T23:26:08.759Z,18.37
2019-01-25T23:28:36.951Z,32.40
2019-01-25T23:31:05.146Z,18.37
2019-01-25T23:33:33.351Z,24.17
2019-01-25T23:36:01.577Z,24.67
2019-01-25T23:38:29.803Z,17.60
2019-01-25T23:40:58.007Z,19.20
2019-01-25T23:43:26.201Z,40.57
2019-01-25T23:45:54.405Z,33.50
2019-01-25T23:48:22.591Z,32.93
2019-01-25T23:50:50.782Z,28.03
2019-01-25T23:53:18.987Z,29.37
2019-01-25T23:55:47.169Z,21.80
2019-01-25T23:58:15.360Z,49.37
